Terminal Aerodrome Forecast
Issued by NWS

Home | Current Version | Previous Version | Text Only | Print | Product List | Glossary On
Versions: 1 2 3 4 5 6 7 8 9 10 11 12 13 14
000
FTUS41 KPBZ 231735
TAFZZV
TAF
KZZV 231735Z 2318/2418 14010KT P6SM -SHRA SCT009 OVC015
      WS020/17040KT
     FM232000 16010G20KT 3SM -SHRA OVC015
     FM240300 20011G21KT P6SM OVC015=

USA.gov is the U.S. government's official web portal to all federal, state and local government web resources and services.